Ayersville, North Carolina
Current Conditions -  °F | °C
As of 3:35 PM on Saturday 25 Oct 2014 (Local Time) from KSIF Reporting Station
Clear Clear  
Wind Chill: 72°   Ceiling: Unl
Heat Index: 72°   Visibility: 10mi
Dew Point: 41°   Wind: 3mph
Humidity: 33%   Direction: 270°W
Pressure: 29.92"   Gusts: NA
Location:  36.4479°N, 79.9473°W
Report Text: KSIF 251935Z AUTO 27003KT 10SM CLR 22/05 A2992 RMK AO2 T02230051
Loading
Personal Weather Stations






























Interactive Weather Map
Tropical Storm Tracking
New forecast layout! Learn more

10-Day Weather Forecast

Advertisements
Track Severe Weather on mobile